sensor_id;sensor_type;location;lat;lon;timestamp;P1;durP1;ratioP1;P2;durP2;ratioP2
25990;SDS011;13779;-33.886;151.198;2023-04-06T00:00:10;4.15;;;2.10;;
25990;SDS011;13779;-33.886;151.198;2023-04-06T00:02:42;6.32;;;2.05;;
25990;SDS011;13779;-33.886;151.198;2023-04-06T00:05:12;5.80;;;2.00;;
25990;SDS011;13779;-33.886;151.198;2023-04-06T00:07:43;8.55;;;1.95;;
25990;SDS011;13779;-33.886;151.198;2023-04-06T00:10:13;9.38;;;3.95;;
25990;SDS011;13779;-33.886;151.198;2023-04-06T00:12:43;8.48;;;3.10;;
25990;SDS011;13779;-33.886;151.198;2023-04-06T00:15:13;5.82;;;2.03;;
25990;SDS011;13779;-33.886;151.198;2023-04-06T00:17:44;6.55;;;2.40;;
25990;SDS011;13779;-33.886;151.198;2023-04-06T00:20:14;7.68;;;2.90;;
25990;SDS011;13779;-33.886;151.198;2023-04-06T00:22:44;6.78;;;2.92;;
25990;SDS011;13779;-33.886;151.198;2023-04-06T00:25:15;10.23;;;3.20;;
25990;SDS011;13779;-33.886;151.198;2023-04-06T00:27:45;11.73;;;2.45;;
25990;SDS011;13779;-33.886;151.198;2023-04-06T00:30:15;3.60;;;1.73;;
25990;SDS011;13779;-33.886;151.198;2023-04-06T00:32:45;9.18;;;1.98;;
25990;SDS011;13779;-33.886;151.198;2023-04-06T00:35:15;2.65;;;1.60;;
25990;SDS011;13779;-33.886;151.198;2023-04-06T00:37:46;5.00;;;1.92;;
25990;SDS011;13779;-33.886;151.198;2023-04-06T00:40:16;7.18;;;2.58;;
25990;SDS011;13779;-33.886;151.198;2023-04-06T00:42:46;5.77;;;2.30;;
25990;SDS011;13779;-33.886;151.198;2023-04-06T00:45:17;5.50;;;1.88;;
25990;SDS011;13779;-33.886;151.198;2023-04-06T00:47:47;6.03;;;1.77;;
25990;SDS011;13779;-33.886;151.198;2023-04-06T00:50:17;6.20;;;1.95;;
25990;SDS011;13779;-33.886;151.198;2023-04-06T00:52:47;8.02;;;2.53;;
25990;SDS011;13779;-33.886;151.198;2023-04-06T00:55:18;5.88;;;1.73;;
25990;SDS011;13779;-33.886;151.198;2023-04-06T00:57:48;6.53;;;1.63;;
25990;SDS011;13779;-33.886;151.198;2023-04-06T01:00:19;14.55;;;8.85;;
25990;SDS011;13779;-33.886;151.198;2023-04-06T01:02:49;8.13;;;4.17;;
25990;SDS011;13779;-33.886;151.198;2023-04-06T01:05:20;9.50;;;4.03;;
25990;SDS011;13779;-33.886;151.198;2023-04-06T01:07:50;6.45;;;2.83;;
25990;SDS011;13779;-33.886;151.198;2023-04-06T01:10:24;7.15;;;2.00;;
25990;SDS011;13779;-33.886;151.198;2023-04-06T01:12:55;8.20;;;1.77;;
25990;SDS011;13779;-33.886;151.198;2023-04-06T01:15:25;6.15;;;2.22;;
25990;SDS011;13779;-33.886;151.198;2023-04-06T01:17:57;3.75;;;1.63;;
25990;SDS011;13779;-33.886;151.198;2023-04-06T01:20:27;5.73;;;1.57;;
25990;SDS011;13779;-33.886;151.198;2023-04-06T01:22:58;4.10;;;1.42;;
25990;SDS011;13779;-33.886;151.198;2023-04-06T01:25:29;6.38;;;1.80;;
25990;SDS011;13779;-33.886;151.198;2023-04-06T01:27:59;3.17;;;1.52;;
25990;SDS011;13779;-33.886;151.198;2023-04-06T01:30:29;3.88;;;1.60;;
25990;SDS011;13779;-33.886;151.198;2023-04-06T01:32:59;5.00;;;1.83;;
25990;SDS011;13779;-33.886;151.198;2023-04-06T01:35:30;6.80;;;2.22;;
25990;SDS011;13779;-33.886;151.198;2023-04-06T01:38:00;3.60;;;1.42;;
25990;SDS011;13779;-33.886;151.198;2023-04-06T01:40:30;2.78;;;1.17;;
25990;SDS011;13779;-33.886;151.198;2023-04-06T01:43:00;6.68;;;1.85;;
25990;SDS011;13779;-33.886;151.198;2023-04-06T01:45:30;3.83;;;1.30;;
25990;SDS011;13779;-33.886;151.198;2023-04-06T01:48:01;4.25;;;1.58;;
25990;SDS011;13779;-33.886;151.198;2023-04-06T01:50:31;4.47;;;1.60;;
25990;SDS011;13779;-33.886;151.198;2023-04-06T01:53:01;5.80;;;1.27;;
25990;SDS011;13779;-33.886;151.198;2023-04-06T01:55:31;3.47;;;1.35;;
25990;SDS011;13779;-33.886;151.198;2023-04-06T01:58:02;7.63;;;1.17;;
25990;SDS011;13779;-33.886;151.198;2023-04-06T02:00:37;7.35;;;2.10;;
25990;SDS011;13779;-33.886;151.198;2023-04-06T02:03:07;3.13;;;1.15;;
25990;SDS011;13779;-33.886;151.198;2023-04-06T02:05:38;6.22;;;1.48;;
25990;SDS011;13779;-33.886;151.198;2023-04-06T02:08:09;5.18;;;2.50;;
25990;SDS011;13779;-33.886;151.198;2023-04-06T02:10:39;4.77;;;1.30;;
25990;SDS011;13779;-33.886;151.198;2023-04-06T02:13:10;3.78;;;1.20;;
25990;SDS011;13779;-33.886;151.198;2023-04-06T02:15:40;7.05;;;2.47;;
25990;SDS011;13779;-33.886;151.198;2023-04-06T02:18:11;7.53;;;2.40;;
25990;SDS011;13779;-33.886;151.198;2023-04-06T02:20:41;6.53;;;1.98;;
25990;SDS011;13779;-33.886;151.198;2023-04-06T02:23:12;5.18;;;1.90;;
25990;SDS011;13779;-33.886;151.198;2023-04-06T02:25:42;4.65;;;1.77;;
25990;SDS011;13779;-33.886;151.198;2023-04-06T02:28:13;5.97;;;2.25;;
25990;SDS011;13779;-33.886;151.198;2023-04-06T02:30:43;6.78;;;1.45;;
25990;SDS011;13779;-33.886;151.198;2023-04-06T02:35:44;4.53;;;1.33;;
25990;SDS011;13779;-33.886;151.198;2023-04-06T02:38:15;5.13;;;1.58;;
25990;SDS011;13779;-33.886;151.198;2023-04-06T02:40:45;6.50;;;1.58;;
25990;SDS011;13779;-33.886;151.198;2023-04-06T02:43:16;16.67;;;7.83;;
25990;SDS011;13779;-33.886;151.198;2023-04-06T02:45:47;10.52;;;3.08;;
25990;SDS011;13779;-33.886;151.198;2023-04-06T02:48:18;4.07;;;2.08;;
25990;SDS011;13779;-33.886;151.198;2023-04-06T02:50:48;6.05;;;1.63;;
25990;SDS011;13779;-33.886;151.198;2023-04-06T02:53:19;5.40;;;1.67;;
25990;SDS011;13779;-33.886;151.198;2023-04-06T02:55:49;5.17;;;1.87;;
25990;SDS011;13779;-33.886;151.198;2023-04-06T02:58:20;5.60;;;1.80;;
25990;SDS011;13779;-33.886;151.198;2023-04-06T03:00:50;6.35;;;2.15;;
25990;SDS011;13779;-33.886;151.198;2023-04-06T03:03:21;4.88;;;1.67;;
25990;SDS011;13779;-33.886;151.198;2023-04-06T03:05:52;4.50;;;1.40;;
25990;SDS011;13779;-33.886;151.198;2023-04-06T03:08:23;5.95;;;1.95;;
25990;SDS011;13779;-33.886;151.198;2023-04-06T03:10:54;3.63;;;1.77;;
25990;SDS011;13779;-33.886;151.198;2023-04-06T03:13:24;3.17;;;1.65;;
25990;SDS011;13779;-33.886;151.198;2023-04-06T03:15:55;4.30;;;1.70;;
25990;SDS011;13779;-33.886;151.198;2023-04-06T03:18:25;8.52;;;1.90;;
25990;SDS011;13779;-33.886;151.198;2023-04-06T03:20:56;5.28;;;1.35;;
25990;SDS011;13779;-33.886;151.198;2023-04-06T03:23:26;6.27;;;1.57;;
25990;SDS011;13779;-33.886;151.198;2023-04-06T03:25:57;7.82;;;1.83;;
25990;SDS011;13779;-33.886;151.198;2023-04-06T03:28:27;3.80;;;1.75;;
25990;SDS011;13779;-33.886;151.198;2023-04-06T03:30:58;4.75;;;2.95;;
25990;SDS011;13779;-33.886;151.198;2023-04-06T03:33:29;10.02;;;5.32;;
25990;SDS011;13779;-33.886;151.198;2023-04-06T03:35:59;8.18;;;2.63;;
25990;SDS011;13779;-33.886;151.198;2023-04-06T03:38:30;8.75;;;2.38;;
25990;SDS011;13779;-33.886;151.198;2023-04-06T03:41:00;4.47;;;2.50;;
25990;SDS011;13779;-33.886;151.198;2023-04-06T03:43:31;7.18;;;2.28;;
25990;SDS011;13779;-33.886;151.198;2023-04-06T03:46:01;6.85;;;2.05;;
25990;SDS011;13779;-33.886;151.198;2023-04-06T03:48:32;5.88;;;2.08;;
25990;SDS011;13779;-33.886;151.198;2023-04-06T03:51:03;3.88;;;1.80;;
25990;SDS011;13779;-33.886;151.198;2023-04-06T03:53:33;5.05;;;1.92;;
25990;SDS011;13779;-33.886;151.198;2023-04-06T03:56:05;5.03;;;1.85;;
25990;SDS011;13779;-33.886;151.198;2023-04-06T03:58:36;8.45;;;1.90;;
25990;SDS011;13779;-33.886;151.198;2023-04-06T04:01:06;4.32;;;1.77;;
25990;SDS011;13779;-33.886;151.198;2023-04-06T04:03:37;7.22;;;1.55;;
25990;SDS011;13779;-33.886;151.198;2023-04-06T04:06:08;4.50;;;1.67;;
25990;SDS011;13779;-33.886;151.198;2023-04-06T04:08:39;6.15;;;1.83;;
25990;SDS011;13779;-33.886;151.198;2023-04-06T04:11:09;6.20;;;1.60;;
25990;SDS011;13779;-33.886;151.198;2023-04-06T04:13:40;6.90;;;2.00;;
25990;SDS011;13779;-33.886;151.198;2023-04-06T04:16:10;8.65;;;2.10;;
25990;SDS011;13779;-33.886;151.198;2023-04-06T04:18:41;6.20;;;1.52;;
25990;SDS011;13779;-33.886;151.198;2023-04-06T04:21:12;9.13;;;1.88;;
25990;SDS011;13779;-33.886;151.198;2023-04-06T04:23:42;8.68;;;2.03;;
25990;SDS011;13779;-33.886;151.198;2023-04-06T04:26:13;3.38;;;1.20;;
25990;SDS011;13779;-33.886;151.198;2023-04-06T04:28:44;5.30;;;1.73;;
25990;SDS011;13779;-33.886;151.198;2023-04-06T04:31:14;5.22;;;1.90;;
25990;SDS011;13779;-33.886;151.198;2023-04-06T04:33:50;9.48;;;3.17;;
25990;SDS011;13779;-33.886;151.198;2023-04-06T04:36:21;3.50;;;1.90;;
25990;SDS011;13779;-33.886;151.198;2023-04-06T04:38:52;4.60;;;1.77;;
25990;SDS011;13779;-33.886;151.198;2023-04-06T04:41:24;4.00;;;1.92;;
25990;SDS011;13779;-33.886;151.198;2023-04-06T04:43:54;3.40;;;1.17;;
25990;SDS011;13779;-33.886;151.198;2023-04-06T04:46:25;6.43;;;1.63;;
25990;SDS011;13779;-33.886;151.198;2023-04-06T04:48:55;6.00;;;1.45;;
25990;SDS011;13779;-33.886;151.198;2023-04-06T04:51:26;2.88;;;0.95;;
25990;SDS011;13779;-33.886;151.198;2023-04-06T04:54:01;5.93;;;1.20;;
25990;SDS011;13779;-33.886;151.198;2023-04-06T04:56:32;6.00;;;1.83;;
25990;SDS011;13779;-33.886;151.198;2023-04-06T04:59:03;6.20;;;2.20;;
25990;SDS011;13779;-33.886;151.198;2023-04-06T05:01:34;4.65;;;1.25;;
25990;SDS011;13779;-33.886;151.198;2023-04-06T05:04:19;4.00;;;1.13;;
25990;SDS011;13779;-33.886;151.198;2023-04-06T05:06:50;8.30;;;1.13;;
25990;SDS011;13779;-33.886;151.198;2023-04-06T05:09:41;2.30;;;1.07;;
25990;SDS011;13779;-33.886;151.198;2023-04-06T05:12:12;7.00;;;1.13;;
25990;SDS011;13779;-33.886;151.198;2023-04-06T05:14:43;5.53;;;1.83;;
25990;SDS011;13779;-33.886;151.198;2023-04-06T05:17:14;3.10;;;1.10;;
25990;SDS011;13779;-33.886;151.198;2023-04-06T05:19:44;4.45;;;1.90;;
25990;SDS011;13779;-33.886;151.198;2023-04-06T05:22:14;4.93;;;1.40;;
25990;SDS011;13779;-33.886;151.198;2023-04-06T05:24:46;6.32;;;1.20;;
25990;SDS011;13779;-33.886;151.198;2023-04-06T05:27:16;4.32;;;1.40;;
25990;SDS011;13779;-33.886;151.198;2023-04-06T05:29:47;4.88;;;1.05;;
25990;SDS011;13779;-33.886;151.198;2023-04-06T05:32:18;6.20;;;1.83;;
25990;SDS011;13779;-33.886;151.198;2023-04-06T05:34:50;3.45;;;1.27;;
25990;SDS011;13779;-33.886;151.198;2023-04-06T05:37:21;5.10;;;1.45;;
25990;SDS011;13779;-33.886;151.198;2023-04-06T05:39:51;3.07;;;1.17;;
25990;SDS011;13779;-33.886;151.198;2023-04-06T05:42:22;16.50;;;10.35;;
25990;SDS011;13779;-33.886;151.198;2023-04-06T05:44:53;12.23;;;6.53;;
25990;SDS011;13779;-33.886;151.198;2023-04-06T05:47:24;6.32;;;3.28;;
25990;SDS011;13779;-33.886;151.198;2023-04-06T05:49:55;4.50;;;2.60;;
25990;SDS011;13779;-33.886;151.198;2023-04-06T05:52:25;9.95;;;2.58;;
25990;SDS011;13779;-33.886;151.198;2023-04-06T05:54:56;7.73;;;1.80;;
25990;SDS011;13779;-33.886;151.198;2023-04-06T05:57:26;6.30;;;1.45;;
25990;SDS011;13779;-33.886;151.198;2023-04-06T05:59:57;6.72;;;1.67;;
25990;SDS011;13779;-33.886;151.198;2023-04-06T06:02:30;4.63;;;1.67;;
25990;SDS011;13779;-33.886;151.198;2023-04-06T06:05:00;10.40;;;2.00;;
25990;SDS011;13779;-33.886;151.198;2023-04-06T06:07:31;5.57;;;1.70;;
25990;SDS011;13779;-33.886;151.198;2023-04-06T06:10:02;3.65;;;2.08;;
25990;SDS011;13779;-33.886;151.198;2023-04-06T06:15:03;7.40;;;2.60;;
25990;SDS011;13779;-33.886;151.198;2023-04-06T06:17:34;9.02;;;1.70;;
25990;SDS011;13779;-33.886;151.198;2023-04-06T06:20:06;9.00;;;1.63;;
25990;SDS011;13779;-33.886;151.198;2023-04-06T06:22:37;5.43;;;1.70;;
25990;SDS011;13779;-33.886;151.198;2023-04-06T06:25:08;7.97;;;1.67;;
25990;SDS011;13779;-33.886;151.198;2023-04-06T06:27:39;5.50;;;1.73;;
25990;SDS011;13779;-33.886;151.198;2023-04-06T06:32:40;8.32;;;2.22;;
25990;SDS011;13779;-33.886;151.198;2023-04-06T06:35:11;7.47;;;2.38;;
25990;SDS011;13779;-33.886;151.198;2023-04-06T06:37:41;11.50;;;3.58;;
25990;SDS011;13779;-33.886;151.198;2023-04-06T06:40:12;8.73;;;2.30;;
25990;SDS011;13779;-33.886;151.198;2023-04-06T06:42:44;7.95;;;2.13;;
25990;SDS011;13779;-33.886;151.198;2023-04-06T06:45:15;7.55;;;2.10;;
25990;SDS011;13779;-33.886;151.198;2023-04-06T06:47:46;5.57;;;1.50;;
25990;SDS011;13779;-33.886;151.198;2023-04-06T06:50:18;6.82;;;1.58;;
25990;SDS011;13779;-33.886;151.198;2023-04-06T06:52:49;4.85;;;1.83;;
25990;SDS011;13779;-33.886;151.198;2023-04-06T06:55:20;4.95;;;1.33;;
25990;SDS011;13779;-33.886;151.198;2023-04-06T06:57:50;5.18;;;1.60;;
25990;SDS011;13779;-33.886;151.198;2023-04-06T07:00:22;3.72;;;1.50;;
25990;SDS011;13779;-33.886;151.198;2023-04-06T07:02:52;6.63;;;1.73;;
25990;SDS011;13779;-33.886;151.198;2023-04-06T07:05:23;5.00;;;1.58;;
25990;SDS011;13779;-33.886;151.198;2023-04-06T07:07:55;7.78;;;1.70;;
25990;SDS011;13779;-33.886;151.198;2023-04-06T07:10:26;8.13;;;2.47;;
25990;SDS011;13779;-33.886;151.198;2023-04-06T07:12:57;6.35;;;1.65;;
25990;SDS011;13779;-33.886;151.198;2023-04-06T07:15:27;7.90;;;1.60;;
25990;SDS011;13779;-33.886;151.198;2023-04-06T07:17:58;5.45;;;1.40;;
25990;SDS011;13779;-33.886;151.198;2023-04-06T07:20:29;5.72;;;1.80;;
25990;SDS011;13779;-33.886;151.198;2023-04-06T07:22:59;4.22;;;1.40;;
25990;SDS011;13779;-33.886;151.198;2023-04-06T07:28:01;5.13;;;1.80;;
25990;SDS011;13779;-33.886;151.198;2023-04-06T07:30:32;4.43;;;1.83;;
25990;SDS011;13779;-33.886;151.198;2023-04-06T07:33:03;6.03;;;1.50;;
25990;SDS011;13779;-33.886;151.198;2023-04-06T07:35:34;5.95;;;2.40;;
25990;SDS011;13779;-33.886;151.198;2023-04-06T07:38:05;5.10;;;2.00;;
25990;SDS011;13779;-33.886;151.198;2023-04-06T07:40:35;7.57;;;2.00;;
25990;SDS011;13779;-33.886;151.198;2023-04-06T07:43:06;9.25;;;4.10;;
25990;SDS011;13779;-33.886;151.198;2023-04-06T07:45:36;10.27;;;3.17;;
25990;SDS011;13779;-33.886;151.198;2023-04-06T07:48:07;7.93;;;2.92;;
25990;SDS011;13779;-33.886;151.198;2023-04-06T07:53:08;11.90;;;3.22;;
25990;SDS011;13779;-33.886;151.198;2023-04-06T07:55:39;12.25;;;3.08;;
25990;SDS011;13779;-33.886;151.198;2023-04-06T07:58:09;10.07;;;2.53;;
25990;SDS011;13779;-33.886;151.198;2023-04-06T08:00:39;8.48;;;3.38;;
25990;SDS011;13779;-33.886;151.198;2023-04-06T08:03:09;6.57;;;3.03;;
25990;SDS011;13779;-33.886;151.198;2023-04-06T08:05:40;10.95;;;3.10;;
25990;SDS011;13779;-33.886;151.198;2023-04-06T08:08:10;7.15;;;2.42;;
25990;SDS011;13779;-33.886;151.198;2023-04-06T08:10:40;9.60;;;2.83;;
25990;SDS011;13779;-33.886;151.198;2023-04-06T08:13:10;9.10;;;2.97;;
25990;SDS011;13779;-33.886;151.198;2023-04-06T08:15:40;10.60;;;2.93;;
25990;SDS011;13779;-33.886;151.198;2023-04-06T08:18:11;7.30;;;2.42;;
25990;SDS011;13779;-33.886;151.198;2023-04-06T08:20:41;6.57;;;2.80;;
25990;SDS011;13779;-33.886;151.198;2023-04-06T08:23:14;8.65;;;2.75;;
25990;SDS011;13779;-33.886;151.198;2023-04-06T08:25:45;9.23;;;2.97;;
25990;SDS011;13779;-33.886;151.198;2023-04-06T08:28:18;11.30;;;2.95;;
25990;SDS011;13779;-33.886;151.198;2023-04-06T08:30:48;8.48;;;2.30;;
25990;SDS011;13779;-33.886;151.198;2023-04-06T08:33:19;9.95;;;2.60;;
25990;SDS011;13779;-33.886;151.198;2023-04-06T08:35:49;10.52;;;3.13;;
25990;SDS011;13779;-33.886;151.198;2023-04-06T08:38:19;13.07;;;5.37;;
25990;SDS011;13779;-33.886;151.198;2023-04-06T08:40:49;7.35;;;3.92;;
25990;SDS011;13779;-33.886;151.198;2023-04-06T08:43:20;10.10;;;3.53;;
25990;SDS011;13779;-33.886;151.198;2023-04-06T08:45:53;10.38;;;3.55;;
25990;SDS011;13779;-33.886;151.198;2023-04-06T08:48:24;7.10;;;3.13;;
25990;SDS011;13779;-33.886;151.198;2023-04-06T08:50:54;13.85;;;4.00;;
25990;SDS011;13779;-33.886;151.198;2023-04-06T08:53:25;7.18;;;2.85;;
25990;SDS011;13779;-33.886;151.198;2023-04-06T08:55:56;8.45;;;2.95;;
25990;SDS011;13779;-33.886;151.198;2023-04-06T08:58:28;7.13;;;2.90;;
25990;SDS011;13779;-33.886;151.198;2023-04-06T09:01:08;9.52;;;3.88;;
25990;SDS011;13779;-33.886;151.198;2023-04-06T09:03:43;6.90;;;2.60;;
25990;SDS011;13779;-33.886;151.198;2023-04-06T09:06:15;8.65;;;2.72;;
25990;SDS011;13779;-33.886;151.198;2023-04-06T09:08:45;10.33;;;3.80;;
25990;SDS011;13779;-33.886;151.198;2023-04-06T09:11:16;8.68;;;3.05;;
25990;SDS011;13779;-33.886;151.198;2023-04-06T09:13:47;8.35;;;3.10;;
25990;SDS011;13779;-33.886;151.198;2023-04-06T09:16:19;9.40;;;3.83;;
25990;SDS011;13779;-33.886;151.198;2023-04-06T09:18:50;8.18;;;3.88;;
25990;SDS011;13779;-33.886;151.198;2023-04-06T09:21:20;9.43;;;3.40;;
25990;SDS011;13779;-33.886;151.198;2023-04-06T09:26:31;9.38;;;4.03;;
25990;SDS011;13779;-33.886;151.198;2023-04-06T09:29:02;9.77;;;3.60;;
25990;SDS011;13779;-33.886;151.198;2023-04-06T09:31:32;22.38;;;11.95;;
25990;SDS011;13779;-33.886;151.198;2023-04-06T09:34:04;14.75;;;5.57;;
25990;SDS011;13779;-33.886;151.198;2023-04-06T09:36:35;13.85;;;5.28;;
25990;SDS011;13779;-33.886;151.198;2023-04-06T09:39:10;11.20;;;4.15;;
25990;SDS011;13779;-33.886;151.198;2023-04-06T09:44:22;11.07;;;4.63;;
25990;SDS011;13779;-33.886;151.198;2023-04-06T09:46:56;11.50;;;4.43;;
25990;SDS011;13779;-33.886;151.198;2023-04-06T09:49:30;13.38;;;4.15;;
25990;SDS011;13779;-33.886;151.198;2023-04-06T09:52:03;12.40;;;3.80;;
25990;SDS011;13779;-33.886;151.198;2023-04-06T09:54:35;13.55;;;3.83;;
25990;SDS011;13779;-33.886;151.198;2023-04-06T10:00:04;13.63;;;3.92;;
25990;SDS011;13779;-33.886;151.198;2023-04-06T10:02:48;14.18;;;4.07;;
25990;SDS011;13779;-33.886;151.198;2023-04-06T10:05:36;14.63;;;4.03;;
25990;SDS011;13779;-33.886;151.198;2023-04-06T10:08:27;10.57;;;4.43;;
25990;SDS011;13779;-33.886;151.198;2023-04-06T10:10:59;10.48;;;4.70;;
25990;SDS011;13779;-33.886;151.198;2023-04-06T10:13:29;10.38;;;4.43;;
25990;SDS011;13779;-33.886;151.198;2023-04-06T10:15:59;11.95;;;4.88;;
25990;SDS011;13779;-33.886;151.198;2023-04-06T10:18:30;11.45;;;4.70;;
25990;SDS011;13779;-33.886;151.198;2023-04-06T10:21:06;14.88;;;4.55;;
25990;SDS011;13779;-33.886;151.198;2023-04-06T10:23:45;15.38;;;4.90;;
25990;SDS011;13779;-33.886;151.198;2023-04-06T10:26:20;14.57;;;5.35;;
25990;SDS011;13779;-33.886;151.198;2023-04-06T10:28:50;14.30;;;5.63;;
25990;SDS011;13779;-33.886;151.198;2023-04-06T10:31:24;14.57;;;5.72;;
25990;SDS011;13779;-33.886;151.198;2023-04-06T10:33:59;12.13;;;5.18;;
25990;SDS011;13779;-33.886;151.198;2023-04-06T10:36:33;14.75;;;5.80;;
25990;SDS011;13779;-33.886;151.198;2023-04-06T10:39:05;16.17;;;5.50;;
25990;SDS011;13779;-33.886;151.198;2023-04-06T10:41:42;16.10;;;5.35;;
25990;SDS011;13779;-33.886;151.198;2023-04-06T10:44:21;20.85;;;5.70;;
25990;SDS011;13779;-33.886;151.198;2023-04-06T10:46:56;11.85;;;5.75;;
25990;SDS011;13779;-33.886;151.198;2023-04-06T10:49:31;12.88;;;5.80;;
25990;SDS011;13779;-33.886;151.198;2023-04-06T10:52:01;13.75;;;5.78;;
25990;SDS011;13779;-33.886;151.198;2023-04-06T10:54:31;13.25;;;5.50;;
25990;SDS011;13779;-33.886;151.198;2023-04-06T10:57:01;8.52;;;4.50;;
25990;SDS011;13779;-33.886;151.198;2023-04-06T10:59:32;14.63;;;4.95;;
25990;SDS011;13779;-33.886;151.198;2023-04-06T11:02:03;11.17;;;4.90;;
25990;SDS011;13779;-33.886;151.198;2023-04-06T11:04:34;14.07;;;4.38;;
25990;SDS011;13779;-33.886;151.198;2023-04-06T11:07:04;8.77;;;4.20;;
25990;SDS011;13779;-33.886;151.198;2023-04-06T11:09:34;12.00;;;3.80;;
25990;SDS011;13779;-33.886;151.198;2023-04-06T11:12:05;9.00;;;3.28;;
25990;SDS011;13779;-33.886;151.198;2023-04-06T11:14:35;12.20;;;3.53;;
25990;SDS011;13779;-33.886;151.198;2023-04-06T11:17:05;10.73;;;4.13;;
25990;SDS011;13779;-33.886;151.198;2023-04-06T11:19:35;9.10;;;3.47;;
25990;SDS011;13779;-33.886;151.198;2023-04-06T11:22:09;12.35;;;3.97;;
25990;SDS011;13779;-33.886;151.198;2023-04-06T11:24:39;10.02;;;3.30;;
25990;SDS011;13779;-33.886;151.198;2023-04-06T11:27:09;9.82;;;4.75;;
25990;SDS011;13779;-33.886;151.198;2023-04-06T11:29:40;10.90;;;3.55;;
25990;SDS011;13779;-33.886;151.198;2023-04-06T11:32:11;10.52;;;3.13;;
25990;SDS011;13779;-33.886;151.198;2023-04-06T11:34:48;7.53;;;3.35;;
25990;SDS011;13779;-33.886;151.198;2023-04-06T11:37:19;14.85;;;4.07;;
25990;SDS011;13779;-33.886;151.198;2023-04-06T11:39:53;7.03;;;2.70;;
25990;SDS011;13779;-33.886;151.198;2023-04-06T11:42:26;10.20;;;3.13;;
25990;SDS011;13779;-33.886;151.198;2023-04-06T11:44:58;7.25;;;3.05;;
25990;SDS011;13779;-33.886;151.198;2023-04-06T11:47:36;6.35;;;2.97;;
25990;SDS011;13779;-33.886;151.198;2023-04-06T11:50:09;10.48;;;3.40;;
25990;SDS011;13779;-33.886;151.198;2023-04-06T11:52:41;8.77;;;3.83;;
25990;SDS011;13779;-33.886;151.198;2023-04-06T11:55:15;8.85;;;3.58;;
25990;SDS011;13779;-33.886;151.198;2023-04-06T11:57:47;11.25;;;3.35;;
25990;SDS011;13779;-33.886;151.198;2023-04-06T12:00:20;8.57;;;3.20;;
25990;SDS011;13779;-33.886;151.198;2023-04-06T12:02:51;5.90;;;2.58;;
25990;SDS011;13779;-33.886;151.198;2023-04-06T12:05:21;9.43;;;3.15;;
25990;SDS011;13779;-33.886;151.198;2023-04-06T12:07:53;7.57;;;3.13;;
25990;SDS011;13779;-33.886;151.198;2023-04-06T12:10:25;12.40;;;4.10;;
25990;SDS011;13779;-33.886;151.198;2023-04-06T12:12:56;6.70;;;3.08;;
25990;SDS011;13779;-33.886;151.198;2023-04-06T12:15:26;10.93;;;3.17;;
25990;SDS011;13779;-33.886;151.198;2023-04-06T12:17:57;7.50;;;2.90;;
25990;SDS011;13779;-33.886;151.198;2023-04-06T12:20:28;8.50;;;3.00;;
25990;SDS011;13779;-33.886;151.198;2023-04-06T12:22:59;10.10;;;3.80;;
25990;SDS011;13779;-33.886;151.198;2023-04-06T12:25:29;10.23;;;4.22;;
25990;SDS011;13779;-33.886;151.198;2023-04-06T12:28:00;10.80;;;3.73;;
25990;SDS011;13779;-33.886;151.198;2023-04-06T12:30:30;8.63;;;2.90;;
25990;SDS011;13779;-33.886;151.198;2023-04-06T12:33:01;13.68;;;3.72;;
25990;SDS011;13779;-33.886;151.198;2023-04-06T12:35:36;9.88;;;4.32;;
25990;SDS011;13779;-33.886;151.198;2023-04-06T12:38:07;7.60;;;3.60;;
25990;SDS011;13779;-33.886;151.198;2023-04-06T12:40:38;9.60;;;2.85;;
25990;SDS011;13779;-33.886;151.198;2023-04-06T12:43:08;7.72;;;2.42;;
25990;SDS011;13779;-33.886;151.198;2023-04-06T12:45:39;7.43;;;3.03;;
25990;SDS011;13779;-33.886;151.198;2023-04-06T12:48:10;14.70;;;4.13;;
25990;SDS011;13779;-33.886;151.198;2023-04-06T12:50:43;12.18;;;3.15;;
25990;SDS011;13779;-33.886;151.198;2023-04-06T12:53:14;10.52;;;2.72;;
25990;SDS011;13779;-33.886;151.198;2023-04-06T12:55:44;12.18;;;3.03;;
25990;SDS011;13779;-33.886;151.198;2023-04-06T12:58:15;9.60;;;2.40;;
25990;SDS011;13779;-33.886;151.198;2023-04-06T13:00:50;7.70;;;2.63;;
25990;SDS011;13779;-33.886;151.198;2023-04-06T13:03:20;19.48;;;3.28;;
25990;SDS011;13779;-33.886;151.198;2023-04-06T13:05:51;13.15;;;2.70;;
25990;SDS011;13779;-33.886;151.198;2023-04-06T13:08:22;10.77;;;2.85;;
25990;SDS011;13779;-33.886;151.198;2023-04-06T13:10:52;12.93;;;2.70;;
25990;SDS011;13779;-33.886;151.198;2023-04-06T13:13:26;7.90;;;2.85;;
25990;SDS011;13779;-33.886;151.198;2023-04-06T13:16:02;9.23;;;3.20;;
25990;SDS011;13779;-33.886;151.198;2023-04-06T13:18:35;12.32;;;3.05;;
25990;SDS011;13779;-33.886;151.198;2023-04-06T13:21:07;15.75;;;3.05;;
25990;SDS011;13779;-33.886;151.198;2023-04-06T13:23:38;14.10;;;2.85;;
25990;SDS011;13779;-33.886;151.198;2023-04-06T13:26:09;9.13;;;2.60;;
25990;SDS011;13779;-33.886;151.198;2023-04-06T13:28:41;7.20;;;2.42;;
25990;SDS011;13779;-33.886;151.198;2023-04-06T13:31:12;9.60;;;2.97;;
25990;SDS011;13779;-33.886;151.198;2023-04-06T13:33:43;16.80;;;3.73;;
25990;SDS011;13779;-33.886;151.198;2023-04-06T13:36:13;13.10;;;3.83;;
25990;SDS011;13779;-33.886;151.198;2023-04-06T13:38:45;8.82;;;2.72;;
25990;SDS011;13779;-33.886;151.198;2023-04-06T13:41:19;8.80;;;2.38;;
25990;SDS011;13779;-33.886;151.198;2023-04-06T13:43:50;11.95;;;2.45;;
25990;SDS011;13779;-33.886;151.198;2023-04-06T13:46:21;9.57;;;3.15;;
25990;SDS011;13779;-33.886;151.198;2023-04-06T13:48:55;11.65;;;2.70;;
25990;SDS011;13779;-33.886;151.198;2023-04-06T13:51:25;13.88;;;3.08;;
25990;SDS011;13779;-33.886;151.198;2023-04-06T13:53:56;8.13;;;2.58;;
25990;SDS011;13779;-33.886;151.198;2023-04-06T13:56:26;10.55;;;2.50;;
25990;SDS011;13779;-33.886;151.198;2023-04-06T13:58:57;11.07;;;2.90;;
25990;SDS011;13779;-33.886;151.198;2023-04-06T14:01:28;11.02;;;2.45;;
25990;SDS011;13779;-33.886;151.198;2023-04-06T14:03:58;9.98;;;2.25;;
25990;SDS011;13779;-33.886;151.198;2023-04-06T14:06:29;8.38;;;2.83;;
25990;SDS011;13779;-33.886;151.198;2023-04-06T14:08:59;12.53;;;3.43;;
25990;SDS011;13779;-33.886;151.198;2023-04-06T14:11:30;7.72;;;2.60;;
25990;SDS011;13779;-33.886;151.198;2023-04-06T14:14:00;13.73;;;3.15;;
25990;SDS011;13779;-33.886;151.198;2023-04-06T14:16:31;7.95;;;2.47;;
25990;SDS011;13779;-33.886;151.198;2023-04-06T14:19:01;9.63;;;2.53;;
25990;SDS011;13779;-33.886;151.198;2023-04-06T14:21:32;6.30;;;1.90;;
25990;SDS011;13779;-33.886;151.198;2023-04-06T14:24:02;6.37;;;2.37;;
25990;SDS011;13779;-33.886;151.198;2023-04-06T14:26:33;5.22;;;2.30;;
25990;SDS011;13779;-33.886;151.198;2023-04-06T14:29:07;11.50;;;2.50;;
25990;SDS011;13779;-33.886;151.198;2023-04-06T14:31:38;6.85;;;2.30;;
25990;SDS011;13779;-33.886;151.198;2023-04-06T14:34:08;11.63;;;3.17;;
25990;SDS011;13779;-33.886;151.198;2023-04-06T14:36:39;8.20;;;2.28;;
25990;SDS011;13779;-33.886;151.198;2023-04-06T14:39:10;6.85;;;1.95;;
25990;SDS011;13779;-33.886;151.198;2023-04-06T14:41:41;6.90;;;2.25;;
25990;SDS011;13779;-33.886;151.198;2023-04-06T14:44:15;8.50;;;1.83;;
25990;SDS011;13779;-33.886;151.198;2023-04-06T14:46:45;14.73;;;2.55;;
25990;SDS011;13779;-33.886;151.198;2023-04-06T14:49:16;9.55;;;2.80;;